createdAt,value
2023-06-26T00:00:35.921Z,2.560
2023-06-26T00:01:36.239Z,1.560
2023-06-26T00:02:36.045Z,0.520
2023-06-26T00:03:36.741Z,1.338
2023-06-26T00:04:36.585Z,1.360
2023-06-26T00:05:36.048Z,2.563
2023-06-26T00:06:36.475Z,2.320
2023-06-26T00:07:36.135Z,0.840
2023-06-26T00:08:36.554Z,0.197
2023-06-26T00:10:36.552Z,1.200
2023-06-26T00:11:36.171Z,2.840
2023-06-26T00:12:36.563Z,1.456
2023-06-26T00:15:36.071Z,0.160
2023-06-26T00:16:36.533Z,0.120
2023-06-26T00:17:35.969Z,0.800
2023-06-26T00:18:36.164Z,1.320
2023-06-26T00:19:36.572Z,1.849
2023-06-26T00:20:36.276Z,1.505
2023-06-26T00:21:36.250Z,0.800
2023-06-26T00:22:36.607Z,3.344
2023-06-26T00:23:37.600Z,4.963
2023-06-26T00:24:36.210Z,4.000
2023-06-26T00:25:36.791Z,3.974
2023-06-26T00:26:36.196Z,4.678
2023-06-26T00:27:36.637Z,3.226
2023-06-26T00:28:36.114Z,3.458
2023-06-26T00:29:36.522Z,2.793
2023-06-26T00:30:36.059Z,2.359
2023-06-26T00:31:36.729Z,3.580
2023-06-26T00:32:36.440Z,4.353
2023-06-26T00:33:35.643Z,1.040
2023-06-26T00:34:36.045Z,2.520
2023-06-26T00:35:36.536Z,1.928
2023-06-26T00:36:35.977Z,1.342
2023-06-26T00:37:36.461Z,2.360
2023-06-26T00:38:35.903Z,2.520
2023-06-26T00:39:36.423Z,2.080
2023-06-26T00:40:36.071Z,2.960
2023-06-26T00:41:35.960Z,1.880
2023-06-26T00:42:36.335Z,4.440
2023-06-26T00:43:35.712Z,4.400
2023-06-26T00:44:36.103Z,3.960
2023-06-26T00:45:43.204Z,6.138
2023-06-26T00:46:36.179Z,4.393
2023-06-26T00:47:36.740Z,4.210
2023-06-26T00:48:36.551Z,3.840
2023-06-26T00:51:36.377Z,3.960
2023-06-26T00:52:35.763Z,4.320
2023-06-26T00:53:36.111Z,2.920
2023-06-26T00:54:35.751Z,3.800
2023-06-26T00:55:36.132Z,3.520
2023-06-26T00:57:36.099Z,4.160
2023-06-26T00:58:36.513Z,3.040
2023-06-26T00:59:35.947Z,2.920
2023-06-26T01:00:36.877Z,2.951
2023-06-26T01:02:35.879Z,2.120
2023-06-26T01:03:35.752Z,1.520
2023-06-26T01:04:36.541Z,1.889
2023-06-26T01:05:35.838Z,1.627
2023-06-26T01:06:36.873Z,1.849
2023-06-26T01:07:36.457Z,3.661
2023-06-26T01:09:36.496Z,4.960
2023-06-26T01:10:36.034Z,4.520
2023-06-26T01:11:36.064Z,3.960
2023-06-26T01:12:36.536Z,2.833
2023-06-26T01:13:35.992Z,3.295
2023-06-26T01:14:36.532Z,3.266
2023-06-26T01:15:36.084Z,3.783
2023-06-26T01:16:36.523Z,2.951
2023-06-26T01:17:36.745Z,4.160
2023-06-26T01:18:36.341Z,3.173
2023-06-26T01:21:36.032Z,3.040
2023-06-26T01:22:36.445Z,3.400
2023-06-26T01:23:35.889Z,3.440
2023-06-26T01:24:36.248Z,4.560
2023-06-26T01:25:35.696Z,2.640
2023-06-26T01:26:36.210Z,1.520
2023-06-26T01:27:35.636Z,2.680
2023-06-26T01:28:36.076Z,3.320
2023-06-26T01:29:36.445Z,2.600
2023-06-26T01:30:36.038Z,4.200
2023-06-26T01:31:35.862Z,3.680
2023-06-26T01:32:36.754Z,4.446
2023-06-26T01:33:36.468Z,4.515
2023-06-26T01:36:35.740Z,3.280
2023-06-26T01:37:36.160Z,2.680
2023-06-26T01:38:36.645Z,3.226
2023-06-26T01:39:36.089Z,3.661
2023-06-26T01:40:36.650Z,3.620
2023-06-26T01:43:36.586Z,2.675
2023-06-26T01:44:36.225Z,1.668
2023-06-26T01:46:38.702Z,2.200
2023-06-26T01:48:36.222Z,1.480
2023-06-26T01:49:36.604Z,1.849
2023-06-26T01:50:36.122Z,3.132
2023-06-26T01:53:35.776Z,3.160
2023-06-26T01:54:36.107Z,3.960
2023-06-26T01:55:36.485Z,3.600
2023-06-26T01:56:35.916Z,3.160
2023-06-26T01:57:36.367Z,3.080
2023-06-26T02:00:36.172Z,3.760
2023-06-26T02:01:36.341Z,4.240
2023-06-26T02:02:36.143Z,4.320
2023-06-26T02:03:36.105Z,3.280
2023-06-26T02:04:36.088Z,4.640
2023-06-26T02:05:36.524Z,3.502
2023-06-26T02:06:36.615Z,2.760
2023-06-26T02:07:36.401Z,2.847
2023-06-26T02:10:35.866Z,2.640
2023-06-26T02:11:36.155Z,3.160
2023-06-26T02:12:36.621Z,2.990
2023-06-26T02:13:35.967Z,2.278
2023-06-26T02:14:36.308Z,2.600
2023-06-26T02:16:36.105Z,3.200
2023-06-26T02:17:36.552Z,2.880
2023-06-26T02:18:36.304Z,2.240
2023-06-26T02:21:36.070Z,2.920
2023-06-26T02:22:36.512Z,3.344
2023-06-26T02:23:35.946Z,3.336
2023-06-26T02:24:36.570Z,2.911
2023-06-26T02:25:35.984Z,2.522
2023-06-26T02:26:36.412Z,3.080
2023-06-26T02:27:36.180Z,2.360
2023-06-26T02:29:36.060Z,3.240
2023-06-26T02:30:36.746Z,3.030
2023-06-26T02:31:36.285Z,2.766
2023-06-26T02:33:35.765Z,3.400
2023-06-26T02:34:36.152Z,2.360
2023-06-26T02:35:36.568Z,2.518
2023-06-26T02:36:35.952Z,3.742
2023-06-26T02:37:36.404Z,1.880
2023-06-26T02:38:35.876Z,4.200
2023-06-26T02:39:36.398Z,3.720
2023-06-26T02:40:36.149Z,2.880
2023-06-26T02:41:36.471Z,2.520
2023-06-26T02:42:35.918Z,2.040
2023-06-26T02:43:36.309Z,3.880
2023-06-26T02:44:35.731Z,2.560
2023-06-26T02:45:36.144Z,2.200
2023-06-26T02:46:36.618Z,3.895
2023-06-26T02:47:36.249Z,3.580
2023-06-26T02:50:36.181Z,3.173
2023-06-26T02:51:36.111Z,2.800
2023-06-26T02:52:36.451Z,3.440
2023-06-26T02:53:35.905Z,2.560
2023-06-26T02:54:36.324Z,3.720
2023-06-26T02:57:35.827Z,3.480
2023-06-26T02:58:36.168Z,3.640
2023-06-26T02:59:36.603Z,1.928
2023-06-26T03:00:36.148Z,1.668
2023-06-26T03:02:36.512Z,3.280
2023-06-26T03:03:36.350Z,3.240
2023-06-26T03:04:36.400Z,2.880
2023-06-26T03:06:36.490Z,2.480
2023-06-26T03:08:36.570Z,4.240
2023-06-26T03:09:35.995Z,1.080
2023-06-26T03:10:36.630Z,1.920
2023-06-26T03:13:35.804Z,0.680
2023-06-26T03:14:36.221Z,1.480
2023-06-26T03:15:35.877Z,1.200
2023-06-26T03:16:36.336Z,1.400
2023-06-26T03:17:36.074Z,2.880
2023-06-26T03:19:36.243Z,1.160
2023-06-26T03:20:36.799Z,1.220
2023-06-26T03:23:36.390Z,0.960
2023-06-26T03:25:36.143Z,2.920
2023-06-26T03:28:35.764Z,2.440
2023-06-26T03:29:36.138Z,3.640
2023-06-26T03:31:35.977Z,3.336
2023-06-26T03:32:36.414Z,3.040
2023-06-26T03:35:36.000Z,4.231
2023-06-26T03:36:36.503Z,2.520
2023-06-26T03:37:35.919Z,3.760
2023-06-26T03:38:36.322Z,3.600
2023-06-26T03:39:35.728Z,2.840
2023-06-26T03:40:36.385Z,3.040
2023-06-26T03:43:36.506Z,3.080
2023-06-26T03:45:36.266Z,1.920
2023-06-26T03:47:35.738Z,3.320
2023-06-26T03:48:36.360Z,3.040
2023-06-26T03:49:35.778Z,1.840
2023-06-26T03:50:36.319Z,3.240
2023-06-26T03:51:36.288Z,1.040
2023-06-26T03:52:35.644Z,2.320
2023-06-26T03:53:36.051Z,2.280
2023-06-26T03:54:36.482Z,1.720
2023-06-26T03:55:35.849Z,2.400
2023-06-26T03:56:36.237Z,1.000
2023-06-26T03:57:35.651Z,2.480
2023-06-26T03:58:36.260Z,4.040
2023-06-26T03:59:35.732Z,4.840
2023-06-26T04:00:36.159Z,4.080
2023-06-26T04:01:36.701Z,3.777
2023-06-26T04:02:36.196Z,4.759
2023-06-26T04:04:35.999Z,3.080
2023-06-26T04:05:36.568Z,2.560
2023-06-26T04:06:36.148Z,2.040
2023-06-26T04:07:37.793Z,1.377
2023-06-26T04:08:36.208Z,0.447
2023-06-26T04:09:36.624Z,2.164
2023-06-26T04:10:35.979Z,2.807
2023-06-26T04:11:36.379Z,0.480
2023-06-26T04:14:35.696Z,2.440
2023-06-26T04:15:35.835Z,2.840
2023-06-26T04:16:35.725Z,2.400
2023-06-26T04:17:36.229Z,3.120
2023-06-26T04:18:36.049Z,2.960
2023-06-26T04:19:38.347Z,3.680
2023-06-26T04:20:35.882Z,2.680
2023-06-26T04:21:35.789Z,3.440
2023-06-26T04:22:36.180Z,3.000
2023-06-26T04:23:36.630Z,3.462
2023-06-26T04:25:36.800Z,4.200
2023-06-26T04:26:35.711Z,2.600
2023-06-26T04:27:38.189Z,1.720
2023-06-26T04:29:36.497Z,1.640
2023-06-26T04:30:35.913Z,2.880
2023-06-26T04:31:36.340Z,2.680
2023-06-26T04:32:36.169Z,2.280
2023-06-26T04:33:35.767Z,1.960
2023-06-26T04:34:36.638Z,2.557
2023-06-26T04:35:36.063Z,3.417
2023-06-26T04:36:36.435Z,3.720
2023-06-26T04:37:35.807Z,3.120
2023-06-26T04:38:36.188Z,2.800
2023-06-26T04:39:36.592Z,2.911
2023-06-26T04:40:36.077Z,2.847
2023-06-26T04:42:35.937Z,2.800
2023-06-26T04:43:36.399Z,5.000
2023-06-26T04:44:35.803Z,4.480
2023-06-26T04:45:36.251Z,3.560
2023-06-26T04:48:36.385Z,5.560
2023-06-26T04:49:37.191Z,4.640
2023-06-26T04:50:36.321Z,5.280
2023-06-26T04:51:35.886Z,4.680
2023-06-26T04:52:36.406Z,2.400
2023-06-26T04:53:35.760Z,5.200
2023-06-26T04:54:36.260Z,3.880
2023-06-26T04:55:36.695Z,4.440
2023-06-26T04:56:35.915Z,2.400
2023-06-26T04:57:36.544Z,3.895
2023-06-26T04:58:36.051Z,4.353
2023-06-26T04:59:36.612Z,4.131
2023-06-26T05:00:36.503Z,4.515
2023-06-26T05:01:37.360Z,4.160
2023-06-26T05:04:35.676Z,4.200
2023-06-26T05:05:36.441Z,3.840
2023-06-26T05:06:35.828Z,4.400
2023-06-26T05:07:36.506Z,3.440
2023-06-26T05:08:35.902Z,2.200
2023-06-26T05:09:36.504Z,4.400
2023-06-26T05:11:35.735Z,3.960
2023-06-26T05:12:36.141Z,4.120
2023-06-26T05:13:36.561Z,4.682
2023-06-26T05:14:36.371Z,3.254
2023-06-26T05:17:36.668Z,3.840
2023-06-26T05:18:36.742Z,4.160
2023-06-26T05:19:36.761Z,4.440
2023-06-26T05:20:37.186Z,3.680
2023-06-26T05:21:36.811Z,5.600
2023-06-26T05:23:35.773Z,3.760
2023-06-26T05:24:36.224Z,4.880
2023-06-26T05:25:35.709Z,3.920
2023-06-26T05:26:36.402Z,5.480
2023-06-26T05:27:35.791Z,5.520
2023-06-26T05:28:36.443Z,5.560
2023-06-26T05:29:38.798Z,6.640
2023-06-26T05:30:36.798Z,3.620
2023-06-26T05:31:35.885Z,3.986
2023-06-26T05:32:36.617Z,5.040
2023-06-26T05:33:36.538Z,6.610
2023-06-26T05:34:35.952Z,5.166
2023-06-26T05:35:36.485Z,6.160
2023-06-26T05:36:36.228Z,6.520
2023-06-26T05:38:36.273Z,4.520
2023-06-26T05:39:35.724Z,4.720
2023-06-26T05:40:36.505Z,5.800
2023-06-26T05:41:35.661Z,6.680
2023-06-26T05:42:36.177Z,9.880
2023-06-26T05:43:35.762Z,6.640
2023-06-26T05:44:36.164Z,7.560
2023-06-26T05:47:36.068Z,5.680
2023-06-26T05:48:36.253Z,6.720
2023-06-26T05:49:35.770Z,5.800
2023-06-26T05:50:36.299Z,7.840
2023-06-26T05:51:35.659Z,7.240
2023-06-26T05:52:36.443Z,4.120
2023-06-26T05:53:35.959Z,5.600
2023-06-26T05:54:36.409Z,6.800
2023-06-26T05:56:36.231Z,5.600
2023-06-26T05:59:35.914Z,3.742
2023-06-26T06:00:36.685Z,6.400
2023-06-26T06:01:36.377Z,6.960
2023-06-26T06:02:36.133Z,4.720
2023-06-26T06:03:35.849Z,4.720
2023-06-26T06:04:36.089Z,7.520
2023-06-26T06:05:36.609Z,8.892
2023-06-26T06:06:36.057Z,7.322
2023-06-26T06:07:36.663Z,5.902
2023-06-26T06:08:36.129Z,6.305
2023-06-26T06:10:36.412Z,7.200
2023-06-26T06:11:36.373Z,8.760
2023-06-26T06:12:35.845Z,4.280
2023-06-26T06:13:36.336Z,6.480
2023-06-26T06:14:35.841Z,7.000
2023-06-26T06:15:36.318Z,6.400
2023-06-26T06:16:35.704Z,7.280
2023-06-26T06:17:36.351Z,7.240
2023-06-26T06:18:36.061Z,6.200
2023-06-26T06:19:36.534Z,6.760
2023-06-26T06:20:36.063Z,4.440
2023-06-26T06:21:36.462Z,5.880
2023-06-26T06:22:35.845Z,8.480
2023-06-26T06:23:36.535Z,4.760
2023-06-26T06:24:35.937Z,5.480
2023-06-26T06:25:36.463Z,5.240
2023-06-26T06:26:35.820Z,3.520
2023-06-26T06:27:36.300Z,4.280
2023-06-26T06:29:36.047Z,5.720
2023-06-26T06:30:45.576Z,4.289
2023-06-26T06:31:35.842Z,5.247
2023-06-26T06:32:36.553Z,4.200
2023-06-26T06:34:35.843Z,1.640
2023-06-26T06:35:36.357Z,2.960
2023-06-26T06:36:35.750Z,6.320
2023-06-26T06:37:36.666Z,3.720
2023-06-26T06:39:35.789Z,4.520
2023-06-26T06:40:36.240Z,3.840
2023-06-26T06:41:37.638Z,3.600
2023-06-26T06:42:36.200Z,3.240
2023-06-26T06:45:35.749Z,4.640
2023-06-26T06:46:36.169Z,5.320
2023-06-26T06:47:35.852Z,4.960
2023-06-26T06:48:36.484Z,7.440
2023-06-26T06:49:35.882Z,6.320
2023-06-26T06:50:36.617Z,7.720
2023-06-26T06:51:35.840Z,7.760
2023-06-26T06:52:36.381Z,7.200
2023-06-26T06:55:35.810Z,6.080
2023-06-26T06:56:36.255Z,4.040
2023-06-26T06:57:35.792Z,5.000
2023-06-26T06:58:36.184Z,3.120
2023-06-26T06:59:35.701Z,3.640
2023-06-26T07:00:36.619Z,6.800
2023-06-26T07:01:35.748Z,4.880
2023-06-26T07:02:36.459Z,5.160
2023-06-26T07:03:36.700Z,3.760
2023-06-26T07:05:35.919Z,6.360
2023-06-26T07:06:36.556Z,4.918
2023-06-26T07:07:36.120Z,5.125
2023-06-26T07:08:36.853Z,3.502
2023-06-26T07:09:36.279Z,3.092
2023-06-26T07:12:36.402Z,6.560
2023-06-26T07:13:35.781Z,8.320
2023-06-26T07:14:35.821Z,6.840
2023-06-26T07:15:36.634Z,4.480
2023-06-26T07:16:36.836Z,1.849
2023-06-26T07:17:36.514Z,2.929
2023-06-26T07:18:36.513Z,3.240
2023-06-26T07:19:36.011Z,7.400
2023-06-26T07:20:36.684Z,5.880
2023-06-26T07:21:36.544Z,7.082
2023-06-26T07:22:35.993Z,5.817
2023-06-26T07:23:36.566Z,3.580
2023-06-26T07:24:36.113Z,2.237
2023-06-26T07:25:35.676Z,2.200
2023-06-26T07:26:46.040Z,3.560
2023-06-26T07:27:35.945Z,4.360
2023-06-26T07:28:36.412Z,3.720
2023-06-26T07:29:35.799Z,6.400
2023-06-26T07:30:36.392Z,8.240
2023-06-26T07:31:36.446Z,6.480
2023-06-26T07:32:36.284Z,5.680
2023-06-26T07:33:36.452Z,4.720
2023-06-26T07:34:35.835Z,5.200
2023-06-26T07:35:36.249Z,6.800
2023-06-26T07:36:36.700Z,5.941
2023-06-26T07:37:37.383Z,3.173
2023-06-26T07:39:36.332Z,4.480
2023-06-26T07:40:35.961Z,4.560
2023-06-26T07:42:35.886Z,1.920
2023-06-26T07:43:35.792Z,5.000
2023-06-26T07:44:36.281Z,6.720
2023-06-26T07:47:36.025Z,7.760
2023-06-26T07:48:36.674Z,5.036
2023-06-26T07:49:36.080Z,4.231
2023-06-26T07:50:37.175Z,3.305
2023-06-26T07:51:36.202Z,4.922
2023-06-26T07:52:35.780Z,4.680
2023-06-26T07:53:36.242Z,3.800
2023-06-26T07:55:35.624Z,3.440
2023-06-26T07:56:36.281Z,1.920
2023-06-26T07:57:35.814Z,4.680
2023-06-26T07:58:36.721Z,3.720
2023-06-26T08:00:35.822Z,6.320
2023-06-26T08:01:36.025Z,4.680
2023-06-26T08:02:36.690Z,3.305
2023-06-26T08:03:40.015Z,3.661
2023-06-26T08:04:35.784Z,4.280
2023-06-26T08:05:36.201Z,1.520
2023-06-26T08:06:35.776Z,6.520
2023-06-26T08:07:36.336Z,6.240
2023-06-26T08:08:35.936Z,6.840
2023-06-26T08:09:37.234Z,7.800
2023-06-26T08:10:35.800Z,5.640
2023-06-26T08:11:36.024Z,5.320
2023-06-26T08:12:36.479Z,8.800
2023-06-26T08:13:35.919Z,8.600
2023-06-26T08:14:36.524Z,7.640
2023-06-26T08:16:36.330Z,1.120
2023-06-26T08:17:35.879Z,1.600
2023-06-26T08:18:36.581Z,2.872
2023-06-26T08:19:36.070Z,3.010
2023-06-26T08:20:36.864Z,3.738
2023-06-26T08:21:36.120Z,2.400
2023-06-26T08:24:36.522Z,5.200
2023-06-26T08:25:36.201Z,6.600
2023-06-26T08:27:36.160Z,6.800
2023-06-26T08:28:36.580Z,5.508
2023-06-26T08:29:36.129Z,5.532
2023-06-26T08:30:36.680Z,2.243
2023-06-26T08:31:36.693Z,2.040
2023-06-26T08:32:36.659Z,5.840
2023-06-26T08:33:37.105Z,3.417
2023-06-26T08:34:37.225Z,5.469
2023-06-26T08:35:35.641Z,5.980
2023-06-26T08:36:36.382Z,5.440
2023-06-26T08:38:36.204Z,8.080
2023-06-26T08:39:35.750Z,6.000
2023-06-26T08:40:36.365Z,4.720
2023-06-26T08:41:36.144Z,3.720
2023-06-26T08:42:36.918Z,3.880
2023-06-26T08:44:37.581Z,6.400
2023-06-26T08:45:36.465Z,7.240
2023-06-26T08:46:35.924Z,5.840
2023-06-26T08:47:36.422Z,5.600
2023-06-26T08:48:36.641Z,5.351
2023-06-26T08:49:36.144Z,5.207
2023-06-26T08:50:36.746Z,4.879
2023-06-26T08:51:36.195Z,4.149
2023-06-26T08:52:36.824Z,5.626
2023-06-26T08:53:36.548Z,7.560
2023-06-26T08:55:36.671Z,3.895
2023-06-26T08:56:36.260Z,3.132
2023-06-26T08:59:35.756Z,2.440
2023-06-26T09:00:36.283Z,5.040
2023-06-26T09:01:35.906Z,3.400
2023-06-26T09:02:36.120Z,4.520
2023-06-26T09:03:35.878Z,6.680
2023-06-26T09:04:36.164Z,7.040
2023-06-26T09:05:35.680Z,6.040
2023-06-26T09:06:35.878Z,4.760
2023-06-26T09:07:36.083Z,4.920
2023-06-26T09:08:36.508Z,8.302
2023-06-26T09:09:36.012Z,8.217
2023-06-26T09:10:36.799Z,5.823
2023-06-26T09:11:36.321Z,3.946
2023-06-26T09:14:35.807Z,7.160
2023-06-26T09:15:36.814Z,2.282
2023-06-26T09:16:35.800Z,0.773
2023-06-26T09:17:36.600Z,3.030
2023-06-26T09:20:36.381Z,5.200
2023-06-26T09:21:36.485Z,5.000
2023-06-26T09:22:36.308Z,5.320
2023-06-26T09:23:35.750Z,6.360
2023-06-26T09:24:36.319Z,4.800
2023-06-26T09:25:35.767Z,3.440
2023-06-26T09:26:36.478Z,0.880
2023-06-26T09:27:35.997Z,0.880
2023-06-26T09:28:36.177Z,5.360
2023-06-26T09:29:35.643Z,4.400
2023-06-26T09:30:36.114Z,4.640
2023-06-26T09:31:42.916Z,2.160
2023-06-26T09:32:36.010Z,1.600
2023-06-26T09:33:36.155Z,0.880
2023-06-26T09:34:36.582Z,2.754
2023-06-26T09:35:36.098Z,3.051
2023-06-26T09:36:39.757Z,3.895
2023-06-26T09:37:35.850Z,1.871
2023-06-26T09:38:36.228Z,5.160
2023-06-26T09:39:36.630Z,7.475
2023-06-26T09:40:36.133Z,5.492
2023-06-26T09:42:36.524Z,6.492
2023-06-26T09:43:37.205Z,7.851
2023-06-26T09:45:35.909Z,4.640
2023-06-26T09:46:35.755Z,8.320
2023-06-26T09:47:36.306Z,9.400
2023-06-26T09:48:36.039Z,9.440
2023-06-26T09:49:36.361Z,5.440
2023-06-26T09:50:35.808Z,5.480
2023-06-26T09:51:36.383Z,1.280
2023-06-26T09:52:36.634Z,1.416
2023-06-26T09:53:36.628Z,4.240
2023-06-26T09:54:36.201Z,4.556
2023-06-26T09:55:35.697Z,8.080
2023-06-26T09:56:35.779Z,3.480
2023-06-26T09:57:36.066Z,3.760
2023-06-26T09:58:35.758Z,7.080
2023-06-26T09:59:36.253Z,3.040
2023-06-26T10:00:36.699Z,3.200
2023-06-26T10:01:36.963Z,4.680
2023-06-26T10:02:36.118Z,7.440
2023-06-26T10:03:36.686Z,7.760
2023-06-26T10:04:35.847Z,10.400
2023-06-26T10:05:35.948Z,10.360
2023-06-26T10:06:36.613Z,10.820
2023-06-26T10:07:36.352Z,9.559
2023-06-26T10:10:35.721Z,2.080
2023-06-26T10:11:36.197Z,1.160
2023-06-26T10:12:36.655Z,4.879
2023-06-26T10:13:36.130Z,8.624
2023-06-26T10:15:36.131Z,7.640
2023-06-26T10:16:35.842Z,8.040
2023-06-26T10:17:36.079Z,9.280
2023-06-26T10:19:36.225Z,11.520
2023-06-26T10:20:35.938Z,16.320
2023-06-26T10:21:36.720Z,14.754
2023-06-26T10:22:36.146Z,7.241
2023-06-26T10:23:36.702Z,5.666
2023-06-26T10:24:37.799Z,6.956
2023-06-26T10:26:35.884Z,5.200
2023-06-26T10:27:36.438Z,14.120
2023-06-26T10:28:35.967Z,13.960
2023-06-26T10:29:36.266Z,13.880
2023-06-26T10:30:35.777Z,10.560
2023-06-26T10:31:36.313Z,7.480
2023-06-26T10:32:35.899Z,3.600
2023-06-26T10:35:35.680Z,13.960
2023-06-26T10:36:36.128Z,15.840
2023-06-26T10:37:36.553Z,9.760
2023-06-26T10:38:36.101Z,10.480
2023-06-26T10:39:36.314Z,6.200
2023-06-26T10:40:35.918Z,6.760
2023-06-26T10:41:36.119Z,16.960
2023-06-26T10:42:35.791Z,14.800
2023-06-26T10:43:36.335Z,17.200
2023-06-26T10:44:35.856Z,13.920
2023-06-26T10:45:36.390Z,9.920
2023-06-26T10:46:35.920Z,10.840
2023-06-26T10:47:36.481Z,11.880
2023-06-26T10:49:36.524Z,14.046
2023-06-26T10:50:35.984Z,8.705
2023-06-26T10:51:36.573Z,9.167
2023-06-26T10:52:35.964Z,3.824
2023-06-26T10:53:36.639Z,8.160
2023-06-26T10:54:36.150Z,6.400
2023-06-26T10:55:35.665Z,4.880
2023-06-26T10:56:36.389Z,9.000
2023-06-26T10:57:35.966Z,7.960
2023-06-26T10:58:36.455Z,7.600
2023-06-26T10:59:36.571Z,9.757
2023-06-26T11:00:36.164Z,12.041
2023-06-26T11:01:36.625Z,8.026
2023-06-26T11:02:36.428Z,10.942
2023-06-26T11:03:36.396Z,15.000
2023-06-26T11:04:35.948Z,12.880
2023-06-26T11:06:36.337Z,15.520
2023-06-26T11:08:36.370Z,11.160
2023-06-26T11:09:35.988Z,11.400
2023-06-26T11:10:36.815Z,11.760
2023-06-26T11:11:35.803Z,10.360
2023-06-26T11:12:36.372Z,7.360
2023-06-26T11:13:35.998Z,15.320
2023-06-26T11:14:36.503Z,17.040
2023-06-26T11:16:35.711Z,7.320
2023-06-26T11:17:36.416Z,9.560
2023-06-26T11:18:36.295Z,5.200
2023-06-26T11:20:36.586Z,16.440
2023-06-26T11:21:36.653Z,15.423
2023-06-26T11:22:36.099Z,12.651
2023-06-26T11:23:36.681Z,8.813
2023-06-26T11:24:36.128Z,13.139
2023-06-26T11:25:39.967Z,13.967
2023-06-26T11:26:36.358Z,13.668
2023-06-26T11:28:36.195Z,7.440
2023-06-26T11:29:36.601Z,8.184
2023-06-26T11:30:36.303Z,14.847
2023-06-26T11:31:36.744Z,8.026
2023-06-26T11:32:36.342Z,10.129
2023-06-26T11:34:35.632Z,7.000
2023-06-26T11:35:36.170Z,11.600
2023-06-26T11:36:36.666Z,10.151
2023-06-26T11:37:36.120Z,7.078
2023-06-26T11:40:36.755Z,10.033
2023-06-26T11:41:36.274Z,10.902
2023-06-26T11:43:36.211Z,9.480
2023-06-26T11:44:35.730Z,14.200
2023-06-26T11:45:36.335Z,14.600
2023-06-26T11:46:35.825Z,16.120
2023-06-26T11:47:36.261Z,13.040
2023-06-26T11:48:36.598Z,10.800
2023-06-26T11:49:35.935Z,8.600
2023-06-26T11:50:37.483Z,7.040
2023-06-26T11:52:36.300Z,6.320
2023-06-26T11:53:35.720Z,10.760
2023-06-26T11:54:36.132Z,8.880
2023-06-26T11:57:35.824Z,4.200
2023-06-26T11:58:36.461Z,6.480
2023-06-26T11:59:35.966Z,6.440
2023-06-26T12:00:36.614Z,6.640
2023-06-26T12:01:35.656Z,5.600
2023-06-26T12:02:36.260Z,4.360
2023-06-26T12:05:36.305Z,14.200
2023-06-26T12:06:35.872Z,10.520
2023-06-26T12:07:36.530Z,5.520
2023-06-26T12:08:36.369Z,15.520
2023-06-26T12:09:35.795Z,14.880
2023-06-26T12:10:36.417Z,19.920
2023-06-26T12:11:36.692Z,15.680
2023-06-26T12:12:36.219Z,9.520
2023-06-26T12:15:36.233Z,8.840
2023-06-26T12:16:36.630Z,16.997
2023-06-26T12:17:36.076Z,14.603
2023-06-26T12:18:36.086Z,12.840
2023-06-26T12:19:36.595Z,16.367
2023-06-26T12:20:36.166Z,11.512
2023-06-26T12:21:36.159Z,11.520
2023-06-26T12:22:36.597Z,13.298
2023-06-26T12:23:36.029Z,18.997
2023-06-26T12:26:36.572Z,12.472
2023-06-26T12:27:36.108Z,10.861
2023-06-26T12:30:36.055Z,4.640
2023-06-26T12:31:36.264Z,6.080
2023-06-26T12:32:35.874Z,6.040
2023-06-26T12:34:36.310Z,7.880
2023-06-26T12:35:35.761Z,10.000
2023-06-26T12:36:35.977Z,12.320
2023-06-26T12:37:36.377Z,11.360
2023-06-26T12:39:36.316Z,10.000
2023-06-26T12:40:35.770Z,12.280
2023-06-26T12:41:36.332Z,15.000
2023-06-26T12:43:36.326Z,17.640
2023-06-26T12:44:35.724Z,13.200
2023-06-26T12:45:37.255Z,10.560
2023-06-26T12:46:36.315Z,4.040
2023-06-26T12:47:36.546Z,9.160
2023-06-26T12:48:36.188Z,11.240
2023-06-26T12:49:36.790Z,11.174
2023-06-26T12:50:36.377Z,13.790
2023-06-26T12:52:35.687Z,18.720
2023-06-26T12:53:37.480Z,14.160
2023-06-26T12:54:35.994Z,9.280
2023-06-26T12:55:36.514Z,9.160
2023-06-26T12:56:36.031Z,9.960
2023-06-26T12:57:36.489Z,9.360
2023-06-26T12:58:36.013Z,10.400
2023-06-26T12:59:35.758Z,11.640
2023-06-26T13:00:36.251Z,7.640
2023-06-26T13:01:35.982Z,8.760
2023-06-26T13:04:36.160Z,9.640
2023-06-26T13:05:36.653Z,10.230
2023-06-26T13:06:36.109Z,9.559
2023-06-26T13:08:36.166Z,6.840
2023-06-26T13:09:36.632Z,6.846
2023-06-26T13:10:36.348Z,7.485
2023-06-26T13:11:36.601Z,10.466
2023-06-26T13:12:36.043Z,9.437
2023-06-26T13:13:36.433Z,14.200
2023-06-26T13:14:35.878Z,12.400
2023-06-26T13:16:36.304Z,14.800
2023-06-26T13:17:35.964Z,9.320
2023-06-26T13:19:36.252Z,10.680
2023-06-26T13:20:35.639Z,11.320
2023-06-26T13:21:35.981Z,10.440
2023-06-26T13:22:36.471Z,15.480
2023-06-26T13:23:35.957Z,21.080
2023-06-26T13:24:36.408Z,16.680
2023-06-26T13:25:35.851Z,13.440
2023-06-26T13:26:41.239Z,10.040
2023-06-26T13:27:35.647Z,9.160
2023-06-26T13:28:36.104Z,9.840
2023-06-26T13:29:36.550Z,11.410
2023-06-26T13:30:36.066Z,12.569
2023-06-26T13:31:36.907Z,20.680
2023-06-26T13:32:35.879Z,15.200
2023-06-26T13:33:36.587Z,18.728
2023-06-26T13:36:35.931Z,8.600
2023-06-26T13:37:36.506Z,15.000
2023-06-26T13:38:36.000Z,11.240
2023-06-26T13:39:36.494Z,7.240
2023-06-26T13:40:36.057Z,10.480
2023-06-26T13:41:35.805Z,12.200
2023-06-26T13:42:36.883Z,13.800
2023-06-26T13:43:36.047Z,11.720
2023-06-26T13:44:47.982Z,14.560
2023-06-26T13:46:36.627Z,14.085
2023-06-26T13:47:36.411Z,8.339
2023-06-26T13:50:53.310Z,9.120
2023-06-26T13:52:36.613Z,15.895
2023-06-26T13:53:36.101Z,20.502
2023-06-26T13:55:36.136Z,17.080
2023-06-26T13:56:35.687Z,21.440
2023-06-26T13:57:36.175Z,19.320
2023-06-26T14:00:36.577Z,15.120
2023-06-26T14:01:36.363Z,12.560
2023-06-26T14:03:37.237Z,11.449
2023-06-26T14:04:35.872Z,13.342
2023-06-26T14:05:40.734Z,13.967
2023-06-26T14:06:35.920Z,16.800
2023-06-26T14:07:36.657Z,18.800
2023-06-26T14:08:36.331Z,17.280
2023-06-26T14:10:36.682Z,9.240
2023-06-26T14:11:36.215Z,11.280
2023-06-26T14:13:36.142Z,12.560
2023-06-26T14:14:36.588Z,19.554
2023-06-26T14:15:36.093Z,13.424
2023-06-26T14:16:36.645Z,14.321
2023-06-26T14:17:36.492Z,16.271
2023-06-26T14:19:35.757Z,17.640
2023-06-26T14:20:36.484Z,17.600
2023-06-26T14:21:36.445Z,16.280
2023-06-26T14:22:35.899Z,14.800
2023-06-26T14:23:36.302Z,13.720
2023-06-26T14:24:35.752Z,9.960
2023-06-26T14:25:36.192Z,11.600
2023-06-26T14:28:36.487Z,14.560
2023-06-26T14:29:35.950Z,9.200
2023-06-26T14:30:36.568Z,14.440
2023-06-26T14:31:36.047Z,19.280
2023-06-26T14:32:36.116Z,14.840
2023-06-26T14:35:36.246Z,13.120
2023-06-26T14:36:35.647Z,15.360
2023-06-26T14:37:36.104Z,16.720
2023-06-26T14:38:35.624Z,23.720
2023-06-26T14:39:36.557Z,14.754
2023-06-26T14:40:36.865Z,13.180
2023-06-26T14:41:35.923Z,17.640
2023-06-26T14:42:36.389Z,16.280
2023-06-26T14:43:36.993Z,16.879
2023-06-26T14:44:36.046Z,17.858
2023-06-26T14:45:36.507Z,16.960
2023-06-26T14:46:36.859Z,13.000
2023-06-26T14:47:36.340Z,10.680
2023-06-26T14:48:36.134Z,6.480
2023-06-26T14:49:36.551Z,5.508
2023-06-26T14:50:36.079Z,7.322
2023-06-26T14:51:36.412Z,9.040
2023-06-26T14:52:35.919Z,16.560
2023-06-26T14:53:36.389Z,12.400
2023-06-26T14:54:35.860Z,18.400
2023-06-26T14:55:36.467Z,21.520
2023-06-26T14:56:35.895Z,9.560
2023-06-26T14:57:36.368Z,11.160
2023-06-26T15:00:35.811Z,11.000
2023-06-26T15:01:36.653Z,16.446
2023-06-26T15:03:36.525Z,14.600
2023-06-26T15:04:36.103Z,12.800
2023-06-26T15:05:36.633Z,8.656
2023-06-26T15:08:36.422Z,14.360
2023-06-26T15:09:35.900Z,16.520
2023-06-26T15:10:36.387Z,13.240
2023-06-26T15:13:35.907Z,22.160
2023-06-26T15:14:36.315Z,24.040
2023-06-26T15:15:35.801Z,22.120
2023-06-26T15:16:36.416Z,20.480
2023-06-26T15:17:36.456Z,17.720
2023-06-26T15:19:36.421Z,17.920
2023-06-26T15:20:35.898Z,15.240
2023-06-26T15:21:36.507Z,15.040
2023-06-26T15:24:35.845Z,15.360
2023-06-26T15:25:36.282Z,12.080
2023-06-26T15:26:35.758Z,13.520
2023-06-26T15:27:36.227Z,9.280
2023-06-26T15:28:35.640Z,11.160
2023-06-26T15:29:36.123Z,8.720
2023-06-26T15:30:36.632Z,9.128
2023-06-26T15:31:35.677Z,6.264
2023-06-26T15:32:35.807Z,9.000